createdAt,value
2022-09-13T00:01:28.157Z,99821.78
2022-09-13T00:03:56.994Z,99821.78
2022-09-13T00:06:25.872Z,99817.22
2022-09-13T00:08:55.051Z,99821.59
2022-09-13T00:11:25.940Z,99812.28
2022-09-13T00:13:55.134Z,99817.16
2022-09-13T00:16:28.323Z,99811.63
2022-09-13T00:18:57.980Z,99808.06
2022-09-13T00:21:27.940Z,99812.38
2022-09-13T00:23:56.870Z,99798.44
2022-09-13T00:26:28.205Z,99800.97
2022-09-13T00:28:58.755Z,99796.72
2022-09-13T00:31:29.975Z,99788.94
2022-09-13T00:34:00.811Z,99786.63
2022-09-13T00:36:30.107Z,99786.84
2022-09-13T00:38:58.725Z,99787.13
2022-09-13T00:41:27.009Z,99795.38
2022-09-13T00:43:57.272Z,99787.50
2022-09-13T00:46:35.379Z,99782.84
2022-09-13T00:49:13.020Z,99783.47
2022-09-13T00:51:46.934Z,99796.91
2022-09-13T00:54:18.789Z,99791.31
2022-09-13T00:56:50.569Z,99794.38
2022-09-13T00:59:25.223Z,99789.50
2022-09-13T01:01:57.645Z,99790.47
2022-09-13T01:04:30.190Z,99785.38
2022-09-13T01:07:02.187Z,99789.84
2022-09-13T01:09:31.664Z,99793.44
2022-09-13T01:12:08.461Z,99791.72
2022-09-13T01:14:38.568Z,99792.53
2022-09-13T01:17:09.952Z,99789.84
2022-09-13T01:19:38.590Z,99792.31
2022-09-13T01:22:45.621Z,99788.34
2022-09-13T01:25:39.875Z,99799.44
2022-09-13T01:28:23.613Z,99794.69
2022-09-13T01:31:01.439Z,99801.88
2022-09-13T01:33:46.781Z,99793.44
2022-09-13T01:36:47.885Z,99799.09
2022-09-13T01:39:22.178Z,99797.56
2022-09-13T01:42:04.010Z,99787.50
2022-09-13T01:44:47.642Z,99796.06
2022-09-13T01:47:25.978Z,99796.84
2022-09-13T01:50:05.988Z,99782.22
2022-09-13T01:52:44.010Z,99780.50
2022-09-13T01:55:19.340Z,99785.69
2022-09-13T01:57:52.710Z,99788.22
2022-09-13T02:00:21.085Z,99775.94
2022-09-13T02:02:55.894Z,99776.59
2022-09-13T02:05:33.581Z,99781.59
2022-09-13T02:08:05.857Z,99782.47
2022-09-13T02:10:36.613Z,99772.97
2022-09-13T02:13:07.675Z,99773.97
2022-09-13T02:15:41.611Z,99767.94
2022-09-13T02:18:17.411Z,99767.28
2022-09-13T02:20:48.954Z,99772.53
2022-09-13T02:23:20.002Z,99780.13
2022-09-13T02:25:52.067Z,99781.59
2022-09-13T02:28:25.323Z,99777.22
2022-09-13T02:30:56.033Z,99774.72
2022-09-13T02:33:30.427Z,99773.84
2022-09-13T02:36:02.903Z,99773.03
2022-09-13T02:38:34.647Z,99766.00
2022-09-13T02:41:12.970Z,99775.59
2022-09-13T02:43:46.360Z,99772.00
2022-09-13T02:46:26.161Z,99771.72
2022-09-13T02:49:02.380Z,99764.66
2022-09-13T02:51:41.017Z,99761.19
2022-09-13T02:54:22.938Z,99759.50
2022-09-13T02:56:55.542Z,99750.78
2022-09-13T02:59:25.633Z,99754.19
2022-09-13T03:01:58.346Z,99748.22
2022-09-13T03:04:28.620Z,99747.53
2022-09-13T03:06:58.203Z,99744.00
2022-09-13T03:09:27.103Z,99751.19
2022-09-13T03:12:16.560Z,99747.09
2022-09-13T03:14:52.663Z,99749.63
2022-09-13T03:17:40.174Z,99755.59
2022-09-13T03:20:13.754Z,99753.75
2022-09-13T03:23:12.262Z,99749.38
2022-09-13T03:25:58.119Z,99749.50
2022-09-13T03:28:35.764Z,99746.13
2022-09-13T03:31:09.853Z,99745.84
2022-09-13T03:33:48.301Z,99747.53
2022-09-13T03:36:23.570Z,99740.66
2022-09-13T03:38:58.712Z,99735.50
2022-09-13T03:41:32.967Z,99730.25
2022-09-13T03:44:05.099Z,99732.00
2022-09-13T03:46:38.835Z,99732.88
2022-09-13T03:49:10.374Z,99731.81
2022-09-13T03:51:41.250Z,99718.91
2022-09-13T03:54:16.191Z,99723.22
2022-09-13T03:56:44.922Z,99719.56
2022-09-13T03:59:13.236Z,99714.16
2022-09-13T04:01:42.014Z,99721.19
2022-09-13T04:04:11.201Z,99719.38
2022-09-13T04:06:41.633Z,99719.31
2022-09-13T04:09:10.142Z,99715.22
2022-09-13T04:11:40.729Z,99716.19
2022-09-13T04:14:09.149Z,99722.34
2022-09-13T04:16:38.791Z,99711.31
2022-09-13T04:19:07.502Z,99708.00
2022-09-13T04:21:36.603Z,99709.91
2022-09-13T04:24:06.689Z,99712.69
2022-09-13T04:26:36.175Z,99710.16
2022-09-13T04:29:05.522Z,99716.44
2022-09-13T04:31:34.097Z,99711.47
2022-09-13T04:34:03.382Z,99706.19
2022-09-13T04:36:32.323Z,99715.38
2022-09-13T04:39:03.039Z,99712.19
2022-09-13T04:41:34.875Z,99709.13
2022-09-13T04:44:04.457Z,99706.78
2022-09-13T04:46:33.495Z,99711.75
2022-09-13T04:49:02.304Z,99714.94
2022-09-13T04:51:31.281Z,99713.16
2022-09-13T04:54:00.572Z,99711.63
2022-09-13T04:56:29.203Z,99717.03
2022-09-13T04:58:59.040Z,99713.56
2022-09-13T05:01:28.129Z,99713.56
2022-09-13T05:03:57.197Z,99714.63
2022-09-13T05:06:26.548Z,99720.22
2022-09-13T05:08:56.850Z,99726.16
2022-09-13T05:11:26.779Z,99716.31
2022-09-13T05:14:00.070Z,99710.16
2022-09-13T05:16:32.692Z,99706.63
2022-09-13T05:19:01.741Z,99715.25
2022-09-13T05:21:31.451Z,99713.34
2022-09-13T05:24:00.960Z,99720.19
2022-09-13T05:26:31.569Z,99713.16
2022-09-13T05:29:02.368Z,99706.22
2022-09-13T05:31:34.723Z,99713.16
2022-09-13T05:34:06.335Z,99712.44
2022-09-13T05:36:37.926Z,99718.72
2022-09-13T05:41:56.310Z,99711.66
2022-09-13T05:44:25.239Z,99713.28
2022-09-13T05:46:55.807Z,99712.16
2022-09-13T05:49:24.151Z,99712.09
2022-09-13T05:51:52.633Z,99710.91
2022-09-13T05:54:21.215Z,99709.97
2022-09-13T05:56:52.617Z,99714.91
2022-09-13T05:59:21.163Z,99707.59
2022-09-13T06:01:50.239Z,99696.84
2022-09-13T06:04:20.537Z,99700.88
2022-09-13T06:06:48.930Z,99703.38
2022-09-13T06:09:18.826Z,99701.38
2022-09-13T06:11:47.506Z,99699.31
2022-09-13T06:14:16.702Z,99707.13
2022-09-13T06:16:45.250Z,99703.38
2022-09-13T06:19:13.616Z,99705.56
2022-09-13T06:21:43.772Z,99705.97
2022-09-13T06:24:12.462Z,99696.59
2022-09-13T06:26:40.953Z,99708.88
2022-09-13T06:29:13.134Z,99709.38
2022-09-13T06:31:44.898Z,99708.16
2022-09-13T06:34:16.309Z,99716.56
2022-09-13T06:36:46.684Z,99711.66
2022-09-13T06:39:16.004Z,99704.22
2022-09-13T06:41:44.789Z,99702.59
2022-09-13T06:44:13.395Z,99701.94
2022-09-13T06:46:42.138Z,99705.88
2022-09-13T06:49:12.077Z,99705.81
2022-09-13T06:51:40.593Z,99706.13
2022-09-13T06:54:10.699Z,99708.94
2022-09-13T06:56:40.354Z,99705.72
2022-09-13T06:59:11.255Z,99715.56
2022-09-13T07:01:41.602Z,99710.25
2022-09-13T07:04:12.670Z,99712.13
2022-09-13T07:06:42.829Z,99711.81
2022-09-13T07:09:17.314Z,99707.56
2022-09-13T07:11:47.423Z,99709.50
2022-09-13T07:14:17.469Z,99712.56
2022-09-13T07:16:47.557Z,99713.94
2022-09-13T07:19:18.350Z,99710.31
2022-09-13T07:21:47.443Z,99708.94
2022-09-13T07:24:18.061Z,99718.13
2022-09-13T07:26:47.154Z,99715.97
2022-09-13T07:29:19.232Z,99714.44
2022-09-13T07:31:50.018Z,99711.88
2022-09-13T07:34:20.786Z,99703.97
2022-09-13T07:36:50.517Z,99710.69
2022-09-13T07:39:22.894Z,99712.81
2022-09-13T07:41:52.067Z,99705.88
2022-09-13T07:44:21.051Z,99708.34
2022-09-13T07:46:49.824Z,99705.63
2022-09-13T07:49:19.930Z,99697.19
2022-09-13T07:51:51.471Z,99686.31
2022-09-13T07:54:21.920Z,99694.66
2022-09-13T07:56:51.982Z,99698.00
2022-09-13T07:59:21.011Z,99691.25
2022-09-13T08:01:52.267Z,99687.66
2022-09-13T08:04:25.489Z,99685.41
2022-09-13T08:06:54.620Z,99699.53
2022-09-13T08:09:24.694Z,99692.34
2022-09-13T08:11:53.944Z,99698.69
2022-09-13T08:14:24.439Z,99691.66
2022-09-13T08:16:56.968Z,99687.28
2022-09-13T08:19:25.876Z,99687.66
2022-09-13T08:21:55.432Z,99689.88
2022-09-13T08:24:26.932Z,99686.66
2022-09-13T08:26:57.662Z,99682.19
2022-09-13T08:29:27.263Z,99683.84
2022-09-13T08:31:56.058Z,99683.28
2022-09-13T08:34:27.636Z,99680.97
2022-09-13T08:36:56.452Z,99684.84
2022-09-13T08:39:29.271Z,99660.63
2022-09-13T08:42:25.918Z,99663.84
2022-09-13T08:44:57.895Z,99667.91
2022-09-13T08:47:40.306Z,99665.25
2022-09-13T08:50:18.494Z,99656.09
2022-09-13T08:52:53.582Z,99661.34
2022-09-13T08:55:31.499Z,99659.13
2022-09-13T08:58:12.967Z,99657.88
2022-09-13T09:00:45.437Z,99650.84
2022-09-13T09:03:23.445Z,99660.13
2022-09-13T09:05:54.478Z,99655.13
2022-09-13T09:08:32.370Z,99659.59
2022-09-13T09:11:09.240Z,99659.44
2022-09-13T09:13:43.061Z,99651.72
2022-09-13T09:16:26.833Z,99652.72
2022-09-13T09:19:00.235Z,99653.75
2022-09-13T09:21:29.151Z,99650.66
2022-09-13T09:23:59.498Z,99646.81
2022-09-13T09:26:32.503Z,99653.97
2022-09-13T09:29:03.325Z,99648.91
2022-09-13T09:31:41.226Z,99653.22
2022-09-13T09:34:19.355Z,99651.09
2022-09-13T09:36:56.037Z,99639.63
2022-09-13T09:39:29.948Z,99642.28
2022-09-13T09:42:04.487Z,99632.78
2022-09-13T09:44:34.721Z,99640.50
2022-09-13T09:47:12.113Z,99633.41
2022-09-13T09:50:04.449Z,99638.78
2022-09-13T09:52:40.204Z,99636.84
2022-09-13T09:55:18.303Z,99628.22
2022-09-13T09:57:58.005Z,99627.44
2022-09-13T10:00:31.492Z,99628.31
2022-09-13T10:03:03.551Z,99622.25
2022-09-13T10:05:33.605Z,99622.59
2022-09-13T10:08:04.087Z,99619.16
2022-09-13T10:10:41.767Z,99617.53
2022-09-13T10:13:17.558Z,99611.81
2022-09-13T10:15:55.482Z,99602.34
2022-09-13T10:18:43.354Z,99595.78
2022-09-13T10:21:24.138Z,99600.69
2022-09-13T10:23:53.543Z,99600.13
2022-09-13T10:26:25.750Z,99597.78
2022-09-13T10:29:02.290Z,99594.91
2022-09-13T10:31:36.717Z,99586.50
2022-09-13T10:34:08.539Z,99583.47
2022-09-13T10:36:52.896Z,99581.38
2022-09-13T10:39:23.816Z,99579.94
2022-09-13T10:41:55.863Z,99574.50
2022-09-13T10:44:31.346Z,99580.00
2022-09-13T10:47:03.213Z,99573.41
2022-09-13T10:49:48.655Z,99568.06
2022-09-13T10:52:32.915Z,99572.63
2022-09-13T10:55:44.033Z,99574.47
2022-09-13T10:58:21.208Z,99568.19
2022-09-13T11:01:40.774Z,99565.06
2022-09-13T11:04:35.295Z,99565.97
2022-09-13T11:07:14.434Z,99565.81
2022-09-13T11:09:49.145Z,99561.84
2022-09-13T11:12:26.131Z,99561.41
2022-09-13T11:15:06.526Z,99559.31
2022-09-13T11:17:57.347Z,99560.72
2022-09-13T11:20:40.153Z,99556.50
2022-09-13T11:23:41.824Z,99547.31
2022-09-13T11:26:26.930Z,99548.09
2022-09-13T11:29:04.939Z,99544.06
2022-09-13T11:31:45.014Z,99540.56
2022-09-13T11:34:33.458Z,99535.50
2022-09-13T11:37:15.133Z,99528.09
2022-09-13T11:39:51.546Z,99523.63
2022-09-13T11:42:35.899Z,99518.84
2022-09-13T11:45:21.917Z,99528.50
2022-09-13T11:48:08.026Z,99519.78
2022-09-13T11:50:48.195Z,99509.94
2022-09-13T11:53:38.496Z,99502.94
2022-09-13T11:56:12.498Z,99494.81
2022-09-13T11:58:48.831Z,99496.34
2022-09-13T12:01:24.442Z,99493.28
2022-09-13T12:04:01.114Z,99496.00
2022-09-13T12:06:35.422Z,99484.94
2022-09-13T12:09:08.833Z,99491.06
2022-09-13T12:11:40.379Z,99485.06
2022-09-13T12:14:15.782Z,99486.19
2022-09-13T12:16:48.902Z,99485.78
2022-09-13T12:19:22.433Z,99472.88
2022-09-13T12:21:54.186Z,99476.13
2022-09-13T12:24:32.031Z,99469.81
2022-09-13T12:27:05.672Z,99475.44
2022-09-13T12:29:40.003Z,99475.56
2022-09-13T12:32:11.962Z,99460.28
2022-09-13T12:34:48.763Z,99462.41
2022-09-13T12:37:35.426Z,99454.13
2022-09-13T12:40:35.317Z,99456.91
2022-09-13T12:43:25.695Z,99454.78
2022-09-13T12:46:33.595Z,99449.19
2022-09-13T12:49:46.210Z,99439.25
2022-09-13T12:52:31.941Z,99426.59
2022-09-13T12:55:46.113Z,99420.72
2022-09-13T12:58:42.567Z,99416.22
2022-09-13T13:01:17.118Z,99415.63
2022-09-13T13:03:52.884Z,99411.25
2022-09-13T13:06:33.642Z,99423.59
2022-09-13T13:09:09.004Z,99428.19
2022-09-13T13:11:48.311Z,99428.91
2022-09-13T13:14:44.190Z,99425.56
2022-09-13T13:17:39.610Z,99419.69
2022-09-13T13:20:45.192Z,99407.53
2022-09-13T13:23:21.940Z,99408.94
2022-09-13T13:26:05.801Z,99407.34
2022-09-13T13:28:52.932Z,99401.63
2022-09-13T13:31:36.652Z,99398.38
2022-09-13T13:34:35.305Z,99397.34
2022-09-13T13:37:06.194Z,99388.41
2022-09-13T13:39:40.346Z,99389.56
2022-09-13T13:42:26.429Z,99377.81
2022-09-13T13:45:16.329Z,99373.22
2022-09-13T13:48:21.028Z,99369.19
2022-09-13T13:51:30.065Z,99373.38
2022-09-13T13:54:02.945Z,99369.00
2022-09-13T13:56:38.401Z,99371.44
2022-09-13T13:59:14.963Z,99364.25
2022-09-13T14:01:48.854Z,99356.97
2022-09-13T14:04:49.101Z,99355.88
2022-09-13T14:07:51.088Z,99358.84
2022-09-13T14:10:25.681Z,99357.59
2022-09-13T14:13:18.885Z,99349.91
2022-09-13T14:15:57.779Z,99351.34
2022-09-13T14:18:49.111Z,99351.22
2022-09-13T14:21:26.518Z,99346.50
2022-09-13T14:24:11.277Z,99337.03
2022-09-13T14:26:41.206Z,99332.56
2022-09-13T14:29:11.545Z,99330.91
2022-09-13T14:31:41.548Z,99314.94
2022-09-13T14:34:22.006Z,99320.00
2022-09-13T14:36:56.075Z,99317.19
2022-09-13T14:39:25.040Z,99319.28
2022-09-13T14:42:01.684Z,99307.97
2022-09-13T14:44:31.537Z,99309.94
2022-09-13T14:47:13.653Z,99302.09
2022-09-13T14:49:49.287Z,99303.50
2022-09-13T14:52:25.634Z,99303.94
2022-09-13T14:54:58.119Z,99296.50
2022-09-13T14:57:30.651Z,99301.13
2022-09-13T15:00:03.518Z,99298.06
2022-09-13T15:02:39.112Z,99301.25
2022-09-13T15:05:14.513Z,99299.28
2022-09-13T15:07:44.489Z,99298.31
2022-09-13T15:10:25.601Z,99304.34
2022-09-13T15:13:03.837Z,99302.19
2022-09-13T15:15:37.877Z,99298.16
2022-09-13T15:18:25.286Z,99295.50
2022-09-13T15:20:56.546Z,99295.06
2022-09-13T15:23:28.406Z,99290.31
2022-09-13T15:26:00.331Z,99286.09
2022-09-13T15:28:30.327Z,99277.59
2022-09-13T15:31:02.365Z,99285.28
2022-09-13T15:33:35.711Z,99283.31
2022-09-13T15:36:29.106Z,99286.84
2022-09-13T15:39:01.064Z,99288.91
2022-09-13T15:41:33.244Z,99293.63
2022-09-13T15:44:02.173Z,99290.13
2022-09-13T15:46:32.030Z,99287.47
2022-09-13T15:49:06.107Z,99286.06
2022-09-13T15:51:39.049Z,99296.41
2022-09-13T15:54:14.141Z,99290.53
2022-09-13T15:56:44.896Z,99291.22
2022-09-13T15:59:15.770Z,99282.09
2022-09-13T16:01:44.779Z,99285.88
2022-09-13T16:04:15.071Z,99280.97
2022-09-13T16:06:44.395Z,99276.06
2022-09-13T16:09:19.720Z,99280.13
2022-09-13T16:11:49.897Z,99274.63
2022-09-13T16:14:19.787Z,99266.50
2022-09-13T16:16:52.456Z,99270.53
2022-09-13T16:19:25.495Z,99261.31
2022-09-13T16:21:56.154Z,99258.22
2022-09-13T16:24:25.018Z,99258.72
2022-09-13T16:26:53.840Z,99260.13
2022-09-13T16:29:23.217Z,99251.69
2022-09-13T16:31:52.680Z,99251.41
2022-09-13T16:34:23.423Z,99253.56
2022-09-13T16:36:52.292Z,99252.97
2022-09-13T16:39:21.560Z,99253.38
2022-09-13T16:41:50.093Z,99248.47
2022-09-13T16:44:19.009Z,99241.63
2022-09-13T16:46:47.952Z,99242.84
2022-09-13T16:49:16.711Z,99242.28
2022-09-13T16:51:46.719Z,99237.38
2022-09-13T16:54:15.258Z,99241.38
2022-09-13T16:56:45.241Z,99235.63
2022-09-13T16:59:14.531Z,99239.63
2022-09-13T17:01:51.733Z,99234.25
2022-09-13T17:04:21.127Z,99230.56
2022-09-13T17:06:51.621Z,99226.91
2022-09-13T17:09:22.776Z,99218.75
2022-09-13T17:11:52.864Z,99226.34
2022-09-13T17:14:22.711Z,99224.22
2022-09-13T17:16:54.739Z,99224.47
2022-09-13T17:19:27.163Z,99222.03
2022-09-13T17:21:57.758Z,99216.28
2022-09-13T17:24:27.300Z,99209.31
2022-09-13T17:26:58.052Z,99215.56
2022-09-13T17:29:31.096Z,99211.25
2022-09-13T17:32:00.947Z,99217.38
2022-09-13T17:34:30.857Z,99213.78
2022-09-13T17:37:00.945Z,99217.63
2022-09-13T17:39:29.435Z,99218.72
2022-09-13T17:41:58.224Z,99217.03
2022-09-13T17:44:27.384Z,99219.22
2022-09-13T17:46:56.119Z,99217.78
2022-09-13T17:49:24.730Z,99216.38
2022-09-13T17:51:53.033Z,99215.75
2022-09-13T17:54:23.360Z,99216.16
2022-09-13T17:56:52.433Z,99211.09
2022-09-13T17:59:22.915Z,99214.81
2022-09-13T18:01:53.639Z,99208.69
2022-09-13T18:04:25.028Z,99214.25
2022-09-13T18:06:56.253Z,99209.91
2022-09-13T18:09:27.280Z,99214.72
2022-09-13T18:11:56.584Z,99211.38
2022-09-13T18:14:27.857Z,99204.41
2022-09-13T18:16:58.181Z,99206.47
2022-09-13T18:19:44.921Z,99210.03
2022-09-13T18:22:15.229Z,99210.19
2022-09-13T18:24:47.197Z,99201.28
2022-09-13T18:27:16.691Z,99194.91
2022-09-13T18:29:45.781Z,99212.22
2022-09-13T18:32:14.396Z,99199.09
2022-09-13T18:34:44.381Z,99202.47
2022-09-13T18:37:12.933Z,99201.38
2022-09-13T18:39:42.844Z,99199.56
2022-09-13T18:42:13.344Z,99194.28
2022-09-13T18:44:43.379Z,99192.50
2022-09-13T18:47:13.251Z,99193.44
2022-09-13T18:49:41.791Z,99182.97
2022-09-13T18:52:11.254Z,99181.63
2022-09-13T18:54:39.748Z,99178.88
2022-09-13T18:57:08.556Z,99175.53
2022-09-13T18:59:38.839Z,99176.28
2022-09-13T19:02:10.647Z,99173.97
2022-09-13T19:04:39.275Z,99172.31
2022-09-13T19:07:08.551Z,99168.13
2022-09-13T19:09:37.436Z,99161.25
2022-09-13T19:12:06.466Z,99156.69
2022-09-13T19:14:35.438Z,99160.28
2022-09-13T19:17:05.540Z,99156.69
2022-09-13T19:19:35.626Z,99153.81
2022-09-13T19:22:04.251Z,99151.16
2022-09-13T19:24:33.886Z,99152.25
2022-09-13T19:27:02.752Z,99152.25
2022-09-13T19:29:31.797Z,99141.09
2022-09-13T19:32:00.950Z,99137.69
2022-09-13T19:34:33.264Z,99136.88
2022-09-13T19:37:02.535Z,99137.69
2022-09-13T19:39:31.541Z,99138.28
2022-09-13T19:42:02.000Z,99128.78
2022-09-13T19:44:31.253Z,99125.06
2022-09-13T19:49:50.862Z,99114.97
2022-09-13T19:52:19.550Z,99118.91
2022-09-13T19:54:48.287Z,99114.72
2022-09-13T19:57:16.862Z,99101.47
2022-09-13T19:59:45.612Z,99111.81
2022-09-13T20:02:13.997Z,99108.31
2022-09-13T20:04:43.104Z,99102.78
2022-09-13T20:07:14.504Z,99108.44
2022-09-13T20:09:46.958Z,99105.38
2022-09-13T20:12:15.937Z,99107.09
2022-09-13T20:14:45.090Z,99112.84
2022-09-13T20:17:13.556Z,99106.28
2022-09-13T20:19:46.433Z,99102.59
2022-09-13T20:22:19.845Z,99104.13
2022-09-13T20:24:48.870Z,99103.84
2022-09-13T20:27:17.267Z,99102.75
2022-09-13T20:29:45.602Z,99097.22
2022-09-13T20:32:14.521Z,99091.94
2022-09-13T20:34:42.931Z,99093.06
2022-09-13T20:37:11.666Z,99088.63
2022-09-13T20:39:41.559Z,99089.63
2022-09-13T20:42:10.127Z,99088.50
2022-09-13T20:44:41.114Z,99086.72
2022-09-13T20:47:09.986Z,99083.91
2022-09-13T20:49:38.473Z,99080.94
2022-09-13T20:52:07.007Z,99078.56
2022-09-13T20:54:36.658Z,99077.97
2022-09-13T20:57:07.348Z,99074.38
2022-09-13T20:59:36.058Z,99082.44
2022-09-13T21:02:04.613Z,99077.97
2022-09-13T21:04:33.177Z,99075.47
2022-09-13T21:07:24.413Z,99074.88
2022-09-13T21:09:52.864Z,99078.78
2022-09-13T21:12:24.567Z,99079.84
2022-09-13T21:14:52.815Z,99081.91
2022-09-13T21:17:21.383Z,99082.19
2022-09-13T21:19:49.553Z,99080.63
2022-09-13T21:22:18.078Z,99074.50
2022-09-13T21:24:47.563Z,99077.38
2022-09-13T21:27:15.958Z,99076.69
2022-09-13T21:29:45.678Z,99073.19
2022-09-13T21:32:14.616Z,99063.56
2022-09-13T21:34:43.570Z,99067.19
2022-09-13T21:37:13.045Z,99066.59
2022-09-13T21:39:41.730Z,99064.09
2022-09-13T21:42:10.538Z,99066.47
2022-09-13T21:44:39.955Z,99066.91
2022-09-13T21:47:10.498Z,99075.91
2022-09-13T21:49:38.988Z,99071.78
2022-09-13T21:52:07.998Z,99073.66
2022-09-13T21:54:36.777Z,99070.63
2022-09-13T21:57:05.485Z,99075.81
2022-09-13T21:59:33.935Z,99070.50
2022-09-13T22:02:02.440Z,99078.56
2022-09-13T22:04:33.206Z,99084.97
2022-09-13T22:07:01.454Z,99077.53
2022-09-13T22:09:29.689Z,99076.81
2022-09-13T22:11:59.241Z,99066.75
2022-09-13T22:14:27.531Z,99055.56
2022-09-13T22:16:56.081Z,99045.50
2022-09-13T22:19:27.004Z,99047.47
2022-09-13T22:21:59.196Z,99038.78
2022-09-13T22:24:29.500Z,99031.94
2022-09-13T22:26:59.344Z,99025.13
2022-09-13T22:29:28.738Z,99035.81
2022-09-13T22:31:57.737Z,99026.44
2022-09-13T22:34:31.059Z,99021.44
2022-09-13T22:37:01.337Z,99021.69
2022-09-13T22:39:30.539Z,99016.28
2022-09-13T22:41:58.924Z,99012.09
2022-09-13T22:44:27.715Z,99019.44
2022-09-13T22:46:56.306Z,99015.81
2022-09-13T22:49:25.309Z,99012.44
2022-09-13T22:51:54.103Z,99011.50
2022-09-13T22:54:24.665Z,98994.91
2022-09-13T22:56:53.128Z,99004.66
2022-09-13T22:59:22.583Z,99006.34
2022-09-13T23:01:51.647Z,98996.72
2022-09-13T23:04:20.282Z,98991.44
2022-09-13T23:06:48.901Z,98999.50
2022-09-13T23:09:19.544Z,98996.00
2022-09-13T23:11:49.762Z,99003.25
2022-09-13T23:14:20.581Z,98995.44
2022-09-13T23:16:51.358Z,98995.66
2022-09-13T23:19:22.615Z,98996.75
2022-09-13T23:21:53.390Z,98974.19
2022-09-13T23:24:24.370Z,98974.72
2022-09-13T23:26:56.009Z,98983.00
2022-09-13T23:29:24.873Z,98982.69
2022-09-13T23:31:55.181Z,98977.84
2022-09-13T23:34:23.805Z,98971.13
2022-09-13T23:36:52.599Z,98980.53
2022-09-13T23:39:21.865Z,98974.53
2022-09-13T23:41:51.117Z,98974.78
2022-09-13T23:44:21.144Z,98980.09
2022-09-13T23:46:49.546Z,98989.91
2022-09-13T23:49:18.475Z,98974.34
2022-09-13T23:51:47.325Z,98978.78
2022-09-13T23:54:16.345Z,98977.22
2022-09-13T23:56:45.599Z,98972.91
2022-09-13T23:59:14.646Z,98979.84
